Time;durP1;ratioP1;P1;durP2;ratioP2;P2;SDS_P1;SDS_P2;PMS_P1;PMS_P2;Temp;Humidity;BMP_temperature;BMP_pressure;BME280_temperature;BME280_humidity;BME280_pressure;Samples;Min_cycle;Max_cycle;Signal;HPM_P1;HPM_P2
2023/01/13 00:00:47;;;;;;;;;;;;;;;8.52;100.00;97705.97;5119775;28;19924;-75
2023/01/13 00:03:13;;;;;;;;;;;;;;;8.46;100.00;97706.97;5100888;28;19962;-74
2023/01/13 00:05:40;;;;;;;;;;;;;;;8.51;100.00;97696.38;5116576;28;19935;-74
2023/01/13 00:08:06;;;;;;;;;;;;;;;8.14;100.00;97685.66;5098485;28;19935;-75
2023/01/13 00:10:33;;;;;;;;;;;;;;;8.28;100.00;97696.72;5101094;28;19951;-75
2023/01/13 00:13:03;;;;;;;;;;;;;;;8.04;100.00;97682.91;5101471;28;19931;-75
2023/01/13 00:15:29;;;;;;;;;;;;;;;7.83;100.00;97694.41;5099012;28;19924;-76
2023/01/13 00:17:56;;;;;;;;;;;;;;;7.82;100.00;97698.13;5098381;28;19977;-75
2023/01/13 00:20:22;;;;;;;;;;;;;;;7.74;100.00;97693.22;5099813;28;19960;-75
2023/01/13 00:22:49;;;;;;;;;;;;;;;7.76;100.00;97696.47;5100859;28;19932;-75
2023/01/13 00:25:16;;;;;;;;;;;;;;;7.66;100.00;97696.34;5111049;28;19928;-75
2023/01/13 00:27:43;;;;;;;;;;;;;;;7.68;100.00;97694.22;5097972;28;19927;-75
2023/01/13 00:30:11;;;;;;;;;;;;;;;7.53;100.00;97692.22;5098011;28;19924;-75
2023/01/13 00:32:38;;;;;;;;;;;;;;;7.47;100.00;97688.69;5098182;28;19926;-75
2023/01/13 00:35:05;;;;;;;;;;;;;;;7.46;100.00;97681.75;5116198;28;19928;-75
2023/01/13 00:37:32;;;;;;;;;;;;;;;7.55;100.00;97685.59;5119595;28;19963;-76
2023/01/13 00:39:59;;;;;;;;;;;;;;;7.40;100.00;97677.44;5120259;28;19924;-75
2023/01/13 00:45:11;;;;;;;;;;;;;;;7.68;100.00;97672.97;5116367;28;19936;-75
2023/01/13 00:47:37;;;;;;;;;;;;;;;7.50;100.00;97672.25;5089921;28;20155;-75
2023/01/13 00:50:04;;;;;;;;;;;;;;;7.51;100.00;97667.75;5089401;28;19935;-75
2023/01/13 00:52:31;;;;;;;;;;;;;;;7.60;100.00;97661.75;5090360;28;19928;-75
2023/01/13 00:54:58;;;;;;;;;;;;;;;7.66;100.00;97659.94;5124505;27;20525;-75
2023/01/13 00:57:24;;;;;;;;;;;;;;;7.67;100.00;97655.44;5117814;28;20616;-75
2023/01/13 00:59:51;;;;;;;;;;;;;;;7.56;100.00;97654.50;5097846;28;19924;-75
2023/01/13 01:02:18;;;;;;;;;;;;;;;7.67;100.00;97655.44;5117093;28;19924;-76
2023/01/13 01:04:45;;;;;;;;;;;;;;;7.61;100.00;97660.69;5101310;28;20469;-76
2023/01/13 01:07:11;;;;;;;;;;;;;;;7.64;100.00;97651.44;5119499;28;19962;-74
2023/01/13 01:09:38;;;;;;;;;;;;;;;7.52;100.00;97648.88;5097636;28;20173;-74
2023/01/13 01:12:04;;;;;;;;;;;;;;;7.61;100.00;97642.06;5097864;28;20019;-75
2023/01/13 01:14:31;;;;;;;;;;;;;;;7.56;100.00;97650.00;5100551;28;19934;-75
2023/01/13 01:16:58;;;;;;;;;;;;;;;7.53;100.00;97645.19;5101629;28;19985;-75
2023/01/13 01:19:26;;;;;;;;;;;;;;;7.58;100.00;97647.88;5118322;28;19924;-75
2023/01/13 01:21:53;;;;;;;;;;;;;;;7.64;100.00;97639.97;5119058;28;19966;-75
2023/01/13 01:24:20;;;;;;;;;;;;;;;7.48;100.00;97642.50;5111166;27;19934;-75
2023/01/13 01:26:46;;;;;;;;;;;;;;;7.37;100.00;97632.78;5104724;28;19919;-76
2023/01/13 01:29:15;;;;;;;;;;;;;;;7.42;100.00;97635.50;5103420;28;19962;-74
2023/01/13 01:31:41;;;;;;;;;;;;;;;7.39;100.00;97636.00;5100198;28;19924;-75
2023/01/13 01:34:07;;;;;;;;;;;;;;;7.47;100.00;97640.06;5098161;28;20276;-75
2023/01/13 01:36:35;;;;;;;;;;;;;;;7.61;100.00;97620.81;5101142;28;19923;-75
2023/01/13 01:39:02;;;;;;;;;;;;;;;7.69;100.00;97629.41;5100916;28;19924;-75
2023/01/13 01:41:30;;;;;;;;;;;;;;;7.52;100.00;97624.97;5116190;28;19924;-75
2023/01/13 01:44:01;;;;;;;;;;;;;;;7.70;100.00;97623.84;5097185;28;19946;-75
2023/01/13 01:46:29;;;;;;;;;;;;;;;7.45;100.00;97627.03;5118003;28;19931;-75
2023/01/13 01:48:58;;;;;;;;;;;;;;;7.52;100.00;97619.66;5100880;28;19920;-75
2023/01/13 01:51:24;;;;;;;;;;;;;;;7.43;100.00;97615.03;5117996;28;19969;-75
2023/01/13 01:53:53;;;;;;;;;;;;;;;7.24;100.00;97603.16;5101395;27;19939;-75
2023/01/13 01:56:20;;;;;;;;;;;;;;;7.28;100.00;97610.38;5102394;28;19935;-76
2023/01/13 01:58:49;;;;;;;;;;;;;;;7.37;100.00;97611.53;5100147;28;19924;-76
2023/01/13 02:01:16;;;;;;;;;;;;;;;7.37;100.00;97618.69;5099491;28;21343;-75
2023/01/13 02:03:45;;;;;;;;;;;;;;;7.57;100.00;97613.59;5096490;28;19920;-75
2023/01/13 02:06:13;;;;;;;;;;;;;;;7.41;100.00;97614.50;5096719;28;21045;-75
2023/01/13 02:08:40;;;;;;;;;;;;;;;7.40;100.00;97613.69;5099933;28;19924;-76
2023/01/13 02:12:28;;;;;;;;;;;;;;;7.49;100.00;97601.56;5118442;28;19979;-76
2023/01/13 02:13:54;;;;;;;;;;;;;;;7.52;100.00;97597.63;5096370;28;19932;-76
2023/01/13 02:16:23;;;;;;;;;;;;;;;7.68;100.00;97599.34;5115680;28;19945;-75
2023/01/13 02:18:56;;;;;;;;;;;;;;;7.83;100.00;97599.50;5099802;28;19973;-75
2023/01/13 02:21:33;;;;;;;;;;;;;;;7.95;100.00;97584.16;5098433;28;19931;-75
2023/01/13 02:27:21;;;;;;;;;;;;;;;8.18;100.00;97577.69;5122573;28;19955;-75
2023/01/13 02:32:50;;;;;;;;;;;;;;;8.27;100.00;97568.19;5130597;27;19926;-76
2023/01/13 02:35:21;;;;;;;;;;;;;;;8.31;100.00;97571.97;5097025;28;19942;-76
2023/01/13 02:37:48;;;;;;;;;;;;;;;8.31;100.00;97564.00;5099722;28;19928;-76
2023/01/13 02:40:20;;;;;;;;;;;;;;;8.34;100.00;97575.97;5117502;28;19923;-75
2023/01/13 02:45:37;;;;;;;;;;;;;;;8.44;100.00;97570.72;5099188;28;19996;-75
2023/01/13 02:48:06;;;;;;;;;;;;;;;8.32;100.00;97578.91;5103539;28;19927;-75
2023/01/13 02:50:35;;;;;;;;;;;;;;;8.47;100.00;97571.03;5118760;28;19950;-75
2023/01/13 02:53:05;;;;;;;;;;;;;;;8.39;100.00;97566.16;5118461;28;19920;-74
2023/01/13 02:55:34;;;;;;;;;;;;;;;8.41;100.00;97561.41;5131718;27;19927;-75
2023/01/13 02:58:01;;;;;;;;;;;;;;;8.42;100.00;97557.66;5100056;28;19924;-75
2023/01/13 03:00:29;;;;;;;;;;;;;;;8.53;100.00;97559.34;5102840;28;19920;-75
2023/01/13 03:02:57;;;;;;;;;;;;;;;8.55;100.00;97549.22;5121889;28;19967;-75
2023/01/13 03:05:24;;;;;;;;;;;;;;;8.29;100.00;97555.47;5119946;28;19924;-75
2023/01/13 03:07:55;;;;;;;;;;;;;;;8.44;100.00;97555.56;5118256;28;19923;-75
2023/01/13 03:10:27;;;;;;;;;;;;;;;8.50;100.00;97564.38;5119268;28;19931;-75
2023/01/13 03:12:59;;;;;;;;;;;;;;;8.53;100.00;97559.34;5103359;28;19920;-75
2023/01/13 03:15:35;;;;;;;;;;;;;;;8.52;100.00;97557.72;5119382;28;19969;-75
2023/01/13 03:18:08;;;;;;;;;;;;;;;8.59;100.00;97554.84;5117957;28;19924;-75
2023/01/13 03:20:39;;;;;;;;;;;;;;;8.63;100.00;97546.06;5103337;28;19931;-76
2023/01/13 03:23:08;;;;;;;;;;;;;;;8.43;100.00;97548.63;5103017;28;19939;-75
2023/01/13 03:25:37;;;;;;;;;;;;;;;8.50;100.00;97554.53;5128380;27;19935;-76
2023/01/13 03:28:07;;;;;;;;;;;;;;;8.50;100.00;97557.19;5099716;28;19931;-76
2023/01/13 03:30:36;;;;;;;;;;;;;;;8.54;100.00;97568.91;5102626;28;19931;-75
2023/01/13 03:33:05;;;;;;;;;;;;;;;8.64;100.00;97560.19;5103377;28;20383;-75
2023/01/13 03:35:36;;;;;;;;;;;;;;;8.53;100.00;97555.88;5100509;28;19939;-75
2023/01/13 03:38:03;;;;;;;;;;;;;;;8.52;100.00;97544.44;5118441;28;19935;-75
2023/01/13 03:40:33;;;;;;;;;;;;;;;8.58;100.00;97543.38;5103288;28;19950;-76
2023/01/13 03:45:48;;;;;;;;;;;;;;;8.57;100.00;97536.44;5133651;27;19991;-76
2023/01/13 03:48:16;;;;;;;;;;;;;;;8.60;100.00;97529.84;5099925;28;19924;-76
2023/01/13 03:50:47;;;;;;;;;;;;;;;8.68;100.00;97535.47;5103094;28;19931;-75
2023/01/13 03:53:15;;;;;;;;;;;;;;;8.49;100.00;97538.81;5102535;28;19959;-76
2023/01/13 03:55:44;;;;;;;;;;;;;;;8.59;100.00;97536.22;5127540;27;19923;-75
2023/01/13 03:58:13;;;;;;;;;;;;;;;8.61;100.00;97534.88;5115729;28;19932;-75
2023/01/13 04:00:42;;;;;;;;;;;;;;;8.58;100.00;97540.72;5117226;28;19928;-75
2023/01/13 04:03:10;;;;;;;;;;;;;;;8.58;100.00;97532.75;5118994;28;20377;-75
2023/01/13 04:05:40;;;;;;;;;;;;;;;8.71;100.00;97528.81;5100246;28;20495;-75
2023/01/13 04:08:13;;;;;;;;;;;;;;;8.56;100.00;97534.06;5100027;28;19991;-75
2023/01/13 04:10:41;;;;;;;;;;;;;;;8.56;100.00;97524.22;5100087;28;19951;-75
2023/01/13 04:13:11;;;;;;;;;;;;;;;8.47;100.00;97530.28;5099936;28;19946;-75
2023/01/13 04:15:39;;;;;;;;;;;;;;;8.61;100.00;97528.75;5109459;28;19924;-74
2023/01/13 04:18:09;;;;;;;;;;;;;;;8.58;100.00;97521.28;5109660;28;19950;-75
2023/01/13 04:20:35;;;;;;;;;;;;;;;8.67;100.00;97523.19;5100321;28;19934;-75
2023/01/13 04:23:02;;;;;;;;;;;;;;;8.47;100.00;97520.47;5095236;28;19972;-75
2023/01/13 04:25:29;;;;;;;;;;;;;;;8.66;100.00;97520.81;5109916;28;19923;-75
2023/01/13 04:27:56;;;;;;;;;;;;;;;8.58;100.00;97522.09;5100464;28;19924;-75
2023/01/13 04:30:22;;;;;;;;;;;;;;;8.67;100.00;97528.53;5119595;28;19920;-75
2023/01/13 04:32:49;;;;;;;;;;;;;;;8.76;100.00;97520.06;5121564;28;19924;-75
2023/01/13 04:35:15;;;;;;;;;;;;;;;8.77;100.00;97521.63;5103022;28;19938;-75
2023/01/13 04:37:42;;;;;;;;;;;;;;;8.75;100.00;97518.44;5100325;28;19931;-75
2023/01/13 04:40:09;;;;;;;;;;;;;;;8.84;100.00;97519.53;5118187;28;19928;-75
2023/01/13 04:42:36;;;;;;;;;;;;;;;8.79;100.00;97516.88;5102854;28;19928;-75
2023/01/13 04:45:03;;;;;;;;;;;;;;;8.61;100.00;97518.09;5120155;28;19920;-75
2023/01/13 04:47:29;;;;;;;;;;;;;;;8.61;100.00;97510.94;5117609;28;19967;-75
2023/01/13 04:49:56;;;;;;;;;;;;;;;8.66;100.00;97516.25;5117058;28;19924;-75
2023/01/13 04:52:22;;;;;;;;;;;;;;;8.70;100.00;97508.56;5119417;28;19920;-76
2023/01/13 04:54:49;;;;;;;;;;;;;;;8.62;100.00;97515.19;5130350;27;19924;-75
2023/01/13 04:57:15;;;;;;;;;;;;;;;8.63;100.00;97508.78;5101002;28;19923;-76
2023/01/13 04:59:43;;;;;;;;;;;;;;;8.59;100.00;97505.06;5116419;28;19991;-76
2023/01/13 05:02:13;;;;;;;;;;;;;;;8.61;100.00;97502.13;5116320;28;19939;-75
2023/01/13 05:04:40;;;;;;;;;;;;;;;8.65;100.00;97506.69;5116119;28;19931;-75
2023/01/13 05:07:06;;;;;;;;;;;;;;;8.59;100.00;97496.28;5097707;28;19924;-75
2023/01/13 05:09:33;;;;;;;;;;;;;;;8.66;100.00;97502.97;5118681;28;19928;-76
2023/01/13 05:17:29;;;;;;;;;;;;;;;8.72;100.00;97508.31;5120317;28;19950;-76
2023/01/13 05:19:55;;;;;;;;;;;;;;;8.76;100.00;97520.06;5120238;28;20334;-75
2023/01/13 05:25:24;;;;;;;;;;;;;;;8.79;100.00;97519.53;5095062;28;19927;-75
2023/01/13 05:27:52;;;;;;;;;;;;;;;8.95;100.00;97510.50;5101996;28;19931;-75
2023/01/13 05:30:20;;;;;;;;;;;;;;;8.82;100.00;97500.38;5121868;28;19928;-75
2023/01/13 05:32:47;;;;;;;;;;;;;;;8.80;100.00;97513.13;5125121;28;19972;-75
2023/01/13 05:35:14;;;;;;;;;;;;;;;8.83;100.00;97505.41;5125580;28;19924;-75
2023/01/13 05:37:41;;;;;;;;;;;;;;;8.73;100.00;97515.25;5121571;28;19920;-75
2023/01/13 05:45:46;;;;;;;;;;;;;;;8.96;100.00;97501.47;5132659;27;19924;-74
2023/01/13 05:48:12;;;;;;;;;;;;;;;8.86;100.00;97510.22;5097226;28;19924;-76
2023/01/13 05:50:39;;;;;;;;;;;;;;;8.74;100.00;97500.84;5118152;28;19951;-76
2023/01/13 05:53:05;;;;;;;;;;;;;;;8.79;100.00;97504.34;5118338;28;19931;-76
2023/01/13 05:55:32;;;;;;;;;;;;;;;8.90;100.00;97510.50;5125818;27;19939;-76
2023/01/13 05:57:58;;;;;;;;;;;;;;;8.75;100.00;97502.47;5097161;28;19924;-76
2023/01/13 06:00:25;;;;;;;;;;;;;;;8.85;100.00;97505.94;5098698;28;19924;-75
2023/01/13 06:02:53;;;;;;;;;;;;;;;8.92;100.00;97497.72;5100425;28;19973;-76
2023/01/13 06:05:19;;;;;;;;;;;;;;;9.00;100.00;97499.91;5117782;28;19924;-75
2023/01/13 06:07:46;;;;;;;;;;;;;;;8.86;100.00;97494.25;5114771;28;19930;-75
2023/01/13 06:10:12;;;;;;;;;;;;;;;8.76;100.00;97501.41;5114664;28;19939;-75
2023/01/13 06:12:39;;;;;;;;;;;;;;;8.75;100.00;97497.16;5118451;28;19928;-76
2023/01/13 06:15:06;;;;;;;;;;;;;;;8.79;100.00;97492.91;5118042;28;19950;-75
2023/01/13 06:17:32;;;;;;;;;;;;;;;8.89;100.00;97490.25;5115246;28;19928;-75
2023/01/13 06:20:00;;;;;;;;;;;;;;;8.81;100.00;97488.91;5096363;28;19941;-76
2023/01/13 06:22:29;;;;;;;;;;;;;;;9.06;100.00;97489.00;5102134;28;19930;-75
2023/01/13 06:24:56;;;;;;;;;;;;;;;8.77;100.00;97489.69;5116014;28;20030;-76
2023/01/13 06:27:22;;;;;;;;;;;;;;;8.80;100.00;97495.28;5093336;28;19924;-76
2023/01/13 06:29:49;;;;;;;;;;;;;;;8.82;100.00;97484.41;5121989;28;19924;-76
2023/01/13 06:32:17;;;;;;;;;;;;;;;8.89;100.00;97484.94;5103265;28;19999;-76
2023/01/13 06:34:44;;;;;;;;;;;;;;;8.82;100.00;97484.41;5100787;28;19928;-75
2023/01/13 06:37:14;;;;;;;;;;;;;;;8.88;100.00;97488.69;5119077;28;19950;-76
2023/01/13 06:39:41;;;;;;;;;;;;;;;8.91;100.00;97490.81;5111180;28;19961;-76
2023/01/13 06:44:52;;;;;;;;;;;;;;;9.02;100.00;97487.91;5126255;28;19928;-75
2023/01/13 06:47:21;;;;;;;;;;;;;;;8.87;100.00;97487.06;5110122;28;19959;-76
2023/01/13 06:49:47;;;;;;;;;;;;;;;9.04;100.00;97490.28;5092091;28;19963;-76
2023/01/13 06:52:15;;;;;;;;;;;;;;;9.05;100.00;97486.56;5118315;28;19930;-76
2023/01/13 06:54:41;;;;;;;;;;;;;;;8.91;100.00;97491.59;5127566;27;19926;-76
2023/01/13 06:57:08;;;;;;;;;;;;;;;8.99;100.00;97496.44;5103404;28;19931;-76
2023/01/13 06:59:34;;;;;;;;;;;;;;;8.94;100.00;97495.63;5118705;28;19983;-76
2023/01/13 07:02:01;;;;;;;;;;;;;;;8.86;100.00;97496.91;5118621;28;20006;-76
2023/01/13 07:04:28;;;;;;;;;;;;;;;9.07;100.00;97495.09;5120628;28;19924;-76
2023/01/13 07:06:54;;;;;;;;;;;;;;;9.00;100.00;97498.03;5103821;28;19951;-75
2023/01/13 07:09:22;;;;;;;;;;;;;;;9.01;100.00;97496.16;5121017;28;20459;-75
2023/01/13 07:11:50;;;;;;;;;;;;;;;9.05;100.00;97500.69;5099871;28;19954;-76
2023/01/13 07:17:01;;;;;;;;;;;;;;;9.01;100.00;97501.47;5121744;28;19955;-75
2023/01/13 07:19:28;;;;;;;;;;;;;;;8.94;100.00;97495.63;5119708;28;19943;-75
2023/01/13 07:21:54;;;;;;;;;;;;;;;8.94;100.00;97492.94;5118182;28;19931;-75
2023/01/13 07:24:22;;;;;;;;;;;;;;;9.01;100.00;97488.97;5117762;28;19969;-75
2023/01/13 07:26:50;;;;;;;;;;;;;;;9.10;100.00;97489.25;5115158;28;19940;-76
2023/01/13 07:29:17;;;;;;;;;;;;;;;8.95;100.00;97497.19;5102750;28;19920;-76
2023/01/13 07:31:43;;;;;;;;;;;;;;;9.03;100.00;97494.84;5117412;28;19983;-76
2023/01/13 07:34:09;;;;;;;;;;;;;;;9.01;100.00;97493.47;5117800;28;19928;-76
2023/01/13 07:36:36;;;;;;;;;;;;;;;8.94;100.00;97498.28;5102890;28;19935;-74
2023/01/13 07:39:03;;;;;;;;;;;;;;;9.10;100.00;97500.69;5121449;28;19924;-78
2023/01/13 07:44:15;;;;;;;;;;;;;;;9.14;100.00;97498.31;5100271;28;20240;-76
2023/01/13 07:46:41;;;;;;;;;;;;;;;8.97;100.00;97514.53;5103965;28;19923;-76
2023/01/13 07:49:08;;;;;;;;;;;;;;;9.08;100.00;97499.38;5121884;28;19950;-77
2023/01/13 07:51:35;;;;;;;;;;;;;;;9.09;100.00;97499.13;5099827;28;19952;-77
2023/01/13 07:54:02;;;;;;;;;;;;;;;8.98;100.00;97488.69;5106528;27;19924;-76
2023/01/13 07:56:28;;;;;;;;;;;;;;;8.97;100.00;97492.44;5122215;27;19931;-76
2023/01/13 07:58:58;;;;;;;;;;;;;;;9.17;100.00;97490.59;5121248;28;20146;-76
2023/01/13 08:01:26;;;;;;;;;;;;;;;8.96;100.00;97498.81;5101175;28;19946;-76
2023/01/13 08:03:53;;;;;;;;;;;;;;;9.04;100.00;97487.63;5099763;28;20496;-77
2023/01/13 08:06:19;;;;;;;;;;;;;;;9.17;100.00;97489.78;5118864;28;19924;-79
2023/01/13 08:08:45;;;;;;;;;;;;;;;9.18;100.00;97492.22;5121263;28;20388;-77
2023/01/13 08:11:12;;;;;;;;;;;;;;;9.01;100.00;97493.47;5137101;27;19920;-77
2023/01/13 08:13:38;;;;;;;;;;;;;;;9.01;100.00;97499.63;5118152;28;20116;-78
2023/01/13 08:16:07;;;;;;;;;;;;;;;9.09;100.00;97508.97;5099670;28;19924;-76
2023/01/13 08:18:35;;;;;;;;;;;;;;;9.25;100.00;97502.63;5102664;28;19947;-76
2023/01/13 08:21:03;;;;;;;;;;;;;;;9.23;100.00;97518.84;5120790;27;19931;-76
2023/01/13 08:23:29;;;;;;;;;;;;;;;9.07;100.00;97514.53;5100617;28;19984;-75
2023/01/13 08:26:00;;;;;;;;;;;;;;;9.01;100.00;97522.78;5108583;28;19969;-76
2023/01/13 08:28:26;;;;;;;;;;;;;;;9.19;100.00;97514.31;5120773;28;19978;-77
2023/01/13 08:30:53;;;;;;;;;;;;;;;9.03;100.00;97516.16;5121671;28;19978;-79
2023/01/13 08:33:20;;;;;;;;;;;;;;;9.06;100.00;97520.97;5120253;28;19951;-77
2023/01/13 08:35:47;;;;;;;;;;;;;;;9.28;100.00;97523.41;5117386;28;19994;-76
2023/01/13 08:38:14;;;;;;;;;;;;;;;9.19;100.00;97525.00;5118392;28;20033;-75
2023/01/13 08:40:40;;;;;;;;;;;;;;;9.24;100.00;97527.66;5122667;28;19924;-76
2023/01/13 08:43:07;;;;;;;;;;;;;;;9.17;100.00;97519.91;5101949;28;20646;-76
2023/01/13 08:45:34;;;;;;;;;;;;;;;9.21;100.00;97522.84;5098766;28;19938;-75
2023/01/13 08:48:01;;;;;;;;;;;;;;;9.24;100.00;97511.66;5098394;28;19994;-76
2023/01/13 08:50:29;;;;;;;;;;;;;;;9.17;100.00;97497.78;5101725;28;19957;-76
2023/01/13 08:52:55;;;;;;;;;;;;;;;9.29;100.00;97492.19;5118990;28;19955;-74
2023/01/13 08:55:22;;;;;;;;;;;;;;;9.21;100.00;97504.19;5109580;28;19949;-74
2023/01/13 08:57:48;;;;;;;;;;;;;;;9.32;100.00;97505.81;5115845;28;19992;-75
2023/01/13 09:00:15;;;;;;;;;;;;;;;9.36;100.00;97498.88;5097970;28;19955;-74
2023/01/13 09:02:42;;;;;;;;;;;;;;;9.32;100.00;97502.34;5119202;28;19923;-77
2023/01/13 09:05:09;;;;;;;;;;;;;;;9.27;100.00;97497.81;5119223;28;19923;-74
2023/01/13 09:07:38;;;;;;;;;;;;;;;9.43;100.00;97504.78;5115837;28;19924;-74
2023/01/13 09:10:06;;;;;;;;;;;;;;;9.44;100.00;97511.69;5097476;28;19935;-74
2023/01/13 09:15:17;;;;;;;;;;;;;;;9.46;100.00;97517.56;5118419;28;19931;-75
2023/01/13 09:17:44;;;;;;;;;;;;;;;9.41;100.00;97514.88;5097325;28;19924;-75
2023/01/13 09:20:11;;;;;;;;;;;;;;;9.46;100.00;97511.44;5115584;28;19927;-75
2023/01/13 09:22:39;;;;;;;;;;;;;;;9.34;100.00;97501.03;5088860;28;19928;-75
2023/01/13 09:25:06;;;;;;;;;;;;;;;9.32;100.00;97505.81;5092262;28;19976;-75
2023/01/13 09:27:32;;;;;;;;;;;;;;;9.36;100.00;97504.22;5097151;28;19928;-75
2023/01/13 09:29:59;;;;;;;;;;;;;;;9.34;100.00;97498.38;5115454;28;19946;-75
2023/01/13 09:32:25;;;;;;;;;;;;;;;9.43;100.00;97519.97;5099760;28;19949;-74
2023/01/13 09:35:00;;;;;;;;;;;;;;;9.39;100.00;97527.69;5101541;28;19924;-73
2023/01/13 09:37:27;;;;;;;;;;;;;;;9.39;100.00;97513.53;5119866;28;20014;-75
2023/01/13 09:39:55;;;;;;;;;;;;;;;9.46;100.00;97525.56;5100245;28;19970;-75
2023/01/13 09:45:22;;;;;;;;;;;;;;;9.37;100.00;97513.81;5040785;28;19952;-75
2023/01/13 09:47:54;;;;;;;;;;;;;;;9.46;100.00;97519.44;5102606;28;19925;-75
2023/01/13 09:50:41;;;;;;;;;;;;;;;9.44;100.00;97511.69;5117450;28;19920;-74
2023/01/13 09:53:12;;;;;;;;;;;;;;;9.45;100.00;97529.28;5097387;27;19999;-74
2023/01/13 09:55:40;;;;;;;;;;;;;;;9.54;100.00;97521.56;5105793;28;19924;-75
2023/01/13 09:58:11;;;;;;;;;;;;;;;9.64;100.00;97511.72;5115574;28;19955;-75
2023/01/13 10:00:40;;;;;;;;;;;;;;;9.47;100.00;97511.16;5119593;28;19927;-75
2023/01/13 10:03:14;;;;;;;;;;;;;;;9.55;100.00;97505.31;5119053;28;19927;-74
2023/01/13 10:05:42;;;;;;;;;;;;;;;9.56;100.00;97488.22;5115653;28;19952;-74
2023/01/13 10:08:11;;;;;;;;;;;;;;;9.66;100.00;97490.91;5115529;28;19931;-74
2023/01/13 10:10:40;;;;;;;;;;;;;;;9.69;100.00;97485.03;5097731;28;19928;-76
2023/01/13 10:13:14;;;;;;;;;;;;;;;9.84;100.00;97478.13;5115526;28;19931;-75
2023/01/13 10:15:42;;;;;;;;;;;;;;;9.77;100.00;97478.38;5107225;28;19924;-76
2023/01/13 10:18:13;;;;;;;;;;;;;;;9.66;100.00;97461.56;5107371;28;19927;-76
2023/01/13 10:20:43;;;;;;;;;;;;;;;9.67;100.00;97465.84;5111081;28;20025;-76
2023/01/13 10:23:16;;;;;;;;;;;;;;;9.82;100.00;97465.03;5119318;28;19923;-76
2023/01/13 10:25:47;;;;;;;;;;;;;;;9.78;100.00;97459.44;5106954;28;19924;-76
2023/01/13 10:28:17;;;;;;;;;;;;;;;9.79;100.00;97470.91;5115757;28;19924;-76
2023/01/13 10:30:44;;;;;;;;;;;;;;;10.03;100.00;97469.25;5100455;28;20417;-76
2023/01/13 10:33:12;;;;;;;;;;;;;;;9.94;100.00;97462.06;5100173;28;19927;-76
2023/01/13 10:35:49;;;;;;;;;;;;;;;10.11;100.00;97468.72;5096828;28;19928;-76
2023/01/13 10:38:17;;;;;;;;;;;;;;;10.05;100.00;97461.81;5115083;28;20042;-75
2023/01/13 10:40:47;;;;;;;;;;;;;;;9.99;100.00;97456.75;5100080;28;19926;-75
2023/01/13 10:43:14;;;;;;;;;;;;;;;10.12;100.00;97458.88;5099601;28;19924;-76
2023/01/13 10:45:43;;;;;;;;;;;;;;;10.06;100.00;97455.38;5096594;28;19924;-75
2023/01/13 10:48:13;;;;;;;;;;;;;;;10.09;100.00;97446.03;5096248;28;19924;-75
2023/01/13 10:50:40;;;;;;;;;;;;;;;10.21;100.00;97463.38;5115096;28;19930;-76
2023/01/13 10:53:16;;;;;;;;;;;;;;;10.25;100.00;97458.31;5097299;28;19920;-77
2023/01/13 10:55:43;;;;;;;;;;;;;;;10.23;100.00;97433.78;5106850;28;20662;-77
2023/01/13 10:58:13;;;;;;;;;;;;;;;10.32;100.00;97440.13;5114532;28;19935;-75
2023/01/13 11:00:40;;;;;;;;;;;;;;;10.19;100.00;97433.50;5096473;28;19943;-75
2023/01/13 11:03:16;;;;;;;;;;;;;;;10.33;100.00;97436.41;5115197;28;19962;-76
2023/01/13 11:05:48;;;;;;;;;;;;;;;10.25;100.00;97437.75;5114211;28;19920;-75
2023/01/13 11:08:16;;;;;;;;;;;;;;;10.28;100.00;97447.09;5117338;28;19924;-75
2023/01/13 11:10:45;;;;;;;;;;;;;;;10.48;100.00;97438.22;5121936;28;20256;-75
2023/01/13 11:13:15;;;;;;;;;;;;;;;10.61;100.00;97454.47;5103544;28;19931;-75
2023/01/13 11:15:44;;;;;;;;;;;;;;;10.33;100.00;97456.97;5110389;28;20155;-75
2023/01/13 11:18:19;;;;;;;;;;;;;;;10.37;100.00;97463.38;5110869;28;19936;-75
2023/01/13 11:20:47;;;;;;;;;;;;;;;10.35;100.00;97458.28;5107988;28;20003;-75
2023/01/13 11:23:17;;;;;;;;;;;;;;;10.27;100.00;97472.97;5100355;28;19920;-75
2023/01/13 11:25:46;;;;;;;;;;;;;;;10.40;100.00;97468.94;5093954;28;19924;-76
2023/01/13 11:28:20;;;;;;;;;;;;;;;10.25;100.00;97463.63;5099945;28;20040;-76
2023/01/13 11:30:50;;;;;;;;;;;;;;;10.28;100.00;97477.25;5121215;28;19920;-76
2023/01/13 11:33:30;;;;;;;;;;;;;;;10.22;100.00;97465.00;5102325;28;19924;-76
2023/01/13 11:36:02;;;;;;;;;;;;;;;10.41;100.00;97475.88;5099138;28;19934;-75
2023/01/13 11:38:31;;;;;;;;;;;;;;;10.28;100.00;97481.78;5120076;28;19927;-75
2023/01/13 11:41:02;;;;;;;;;;;;;;;10.25;100.00;97475.13;5102651;28;19919;-74
2023/01/13 11:43:32;;;;;;;;;;;;;;;10.36;100.00;97486.56;5118890;28;19989;-75
2023/01/13 11:46:00;;;;;;;;;;;;;;;10.27;100.00;97485.53;5117807;28;20340;-76
2023/01/13 11:48:28;;;;;;;;;;;;;;;10.41;100.00;97494.56;5119530;28;19946;-76
2023/01/13 11:50:59;;;;;;;;;;;;;;;10.26;100.00;97486.59;5120903;28;19924;-76
2023/01/13 11:53:36;;;;;;;;;;;;;;;10.37;100.00;97496.16;5101165;28;19923;-75
2023/01/13 11:56:12;;;;;;;;;;;;;;;10.41;100.00;97505.25;5091091;28;19950;-77
2023/01/13 11:58:59;;;;;;;;;;;;;;;10.49;100.00;97509.22;5109218;28;19969;-77
2023/01/13 12:01:33;;;;;;;;;;;;;;;10.22;100.00;97528.22;5109145;28;19950;-77
2023/01/13 12:04:07;;;;;;;;;;;;;;;10.39;100.00;97550.09;5108911;28;19927;-77
2023/01/13 12:06:37;;;;;;;;;;;;;;;10.09;100.00;97528.75;5109553;28;19924;-77
2023/01/13 12:09:22;;;;;;;;;;;;;;;9.94;100.00;97513.56;5109333;28;19993;-77
2023/01/13 12:14:51;;;;;;;;;;;;;;;10.03;100.00;97524.47;5128696;27;19991;-78
2023/01/13 12:17:22;;;;;;;;;;;;;;;10.02;100.00;97521.03;5101870;28;20003;-77
2023/01/13 12:19:49;;;;;;;;;;;;;;;10.04;100.00;97520.75;5098144;28;19983;-78
2023/01/13 12:22:20;;;;;;;;;;;;;;;10.10;100.00;97533.03;5099060;28;19924;-78
2023/01/13 12:24:50;;;;;;;;;;;;;;;10.00;100.00;97509.81;5097361;28;19977;-78
2023/01/13 12:27:22;;;;;;;;;;;;;;;9.95;100.00;97507.16;5116818;28;19945;-78
2023/01/13 12:29:51;;;;;;;;;;;;;;;10.10;100.00;97509.81;5117160;28;19924;-78
2023/01/13 12:32:20;;;;;;;;;;;;;;;10.12;100.00;97498.88;5099284;28;19928;-77
2023/01/13 12:34:57;;;;;;;;;;;;;;;10.07;100.00;97501.53;5102438;28;19924;-77
2023/01/13 12:37:29;;;;;;;;;;;;;;;10.00;100.00;97493.81;5118463;28;19928;-77
2023/01/13 12:40:01;;;;;;;;;;;;;;;10.03;100.00;97514.63;5116436;28;20501;-78
2023/01/13 12:45:23;;;;;;;;;;;;;;;10.09;100.00;97523.41;5134023;27;20484;-77
2023/01/13 12:47:50;;;;;;;;;;;;;;;10.16;100.00;97515.97;5098825;28;19935;-77
2023/01/13 12:50:40;;;;;;;;;;;;;;;10.04;100.00;97518.09;5117809;28;19956;-77
2023/01/13 12:53:30;;;;;;;;;;;;;;;12.65;100.00;97528.31;5109944;27;19951;-77
2023/01/13 12:56:12;;;;;;;;;;;;;;;13.69;100.00;97520.22;5108249;28;19991;-77
2023/01/13 12:58:38;;;;;;;;;;;;;;;14.05;100.00;97500.56;5097766;28;19970;-77
2023/01/13 13:01:10;;;;;;;;;;;;;;;14.29;100.00;97505.00;5098378;28;19924;-77
2023/01/13 13:03:37;;;;;;;;;;;;;;;14.54;100.00;97513.41;5101524;28;19941;-77
2023/01/13 13:06:07;;;;;;;;;;;;;;;13.82;100.00;97514.94;5101371;28;19923;-77
2023/01/13 13:08:44;;;;;;;;;;;;;;;12.73;100.00;97514.28;5117127;28;19924;-77
2023/01/13 13:14:33;;;;;;;;;;;;;;;11.52;100.00;97530.63;5099662;28;19928;-78
2023/01/13 13:17:00;;;;;;;;;;;;;;;11.36;100.00;97532.59;5121752;27;19934;-78
2023/01/13 13:19:43;;;;;;;;;;;;;;;11.11;100.00;97538.09;5100422;28;19945;-78
2023/01/13 13:22:21;;;;;;;;;;;;;;;10.86;100.00;97541.69;5098830;28;19931;-77
2023/01/13 13:25:06;;;;;;;;;;;;;;;10.95;100.00;97536.56;5111285;28;19924;-78
2023/01/13 13:27:40;;;;;;;;;;;;;;;10.95;100.00;97544.59;5093973;28;19920;-78
2023/01/13 13:30:13;;;;;;;;;;;;;;;10.70;100.00;97543.59;5102242;28;19927;-77
2023/01/13 13:32:52;;;;;;;;;;;;;;;10.61;100.00;97547.09;5115803;28;19924;-77
2023/01/13 13:35:27;;;;;;;;;;;;;;;10.74;100.00;97549.19;5099198;28;19960;-77
2023/01/13 13:49:12;;;;;;;;;;;;;;;10.55;100.00;97540.19;5099919;28;19927;-77
2023/01/13 13:51:43;;;;;;;;;;;;;;;10.50;100.00;97550.84;5107771;28;19924;-76
2023/01/13 13:54:11;;;;;;;;;;;;;;;10.40;100.00;97543.66;5107440;28;19996;-77
2023/01/13 13:56:40;;;;;;;;;;;;;;;10.35;100.00;97543.69;5110984;28;19943;-77